KIPL/IPL METAR and TAF weather

Enter ICAO airport designator
Station Type Date Time Source
KIPL METAR 2023/05/31 22:53 UTC NOAA

KIPL 312253Z AUTO 25013G22KT 10SM CLR 30/07 A2968 RMK AO2 SLP049 T03000067


Station Type Date Time Source
KIPL Decoded METAR 2023/05/31 22:53 UTC NOAA

Imperial, Imperial County Airport, CA, United States (KIPL) 32-50-03N 115-34-43W -15M
May 31, 2023 - 06:53 PM EDT / 2023.05.31 2253 UTC
Wind: from the WSW (250 degrees) at 15 MPH (13 KT) gusting to 25 MPH (22 KT):0
Visibility: 10 mile(s):0
Sky conditions: clear
Temperature: 86.0 F (30.0 C)
Dew Point: 44.1 F (6.7 C)
Relative Humidity: 23%
Pressure (altimeter): 29.68 in. Hg (1005 hPa)
ob: KIPL 312253Z AUTO 25013G22KT 10SM CLR 30/07 A2968 RMK AO2 SLP049 T03000067
cycle: 23

Station Type Date Time Source
KIPL TAF 2023/05/31 18:24 UTC NOAA

TAF KIPL 311722Z 3118/0118 27012G22KT P6SM SKC
FM312200 25018G32KT P6SM SKC
FM010500 26013KT P6SM SKC
FM010900 24008KT P6SM SKC

Example: see airport list